createdAt,value
2018-09-03T00:01:33.116Z,16.60
2018-09-03T00:04:02.114Z,16.40
2018-09-03T00:06:31.037Z,16.20
2018-09-03T00:08:59.994Z,16.10
2018-09-03T00:11:28.819Z,16.00
2018-09-03T00:13:57.756Z,15.80
2018-09-03T00:16:26.480Z,15.70
2018-09-03T00:18:55.287Z,15.70
2018-09-03T00:21:24.076Z,15.60
2018-09-03T00:23:52.658Z,15.40
2018-09-03T00:26:21.374Z,15.20
2018-09-03T00:28:50.465Z,15.10
2018-09-03T00:31:24.482Z,15.20
2018-09-03T00:33:58.416Z,15.10
2018-09-03T00:36:32.579Z,15.00
2018-09-03T00:39:06.726Z,14.90
2018-09-03T00:41:40.588Z,14.70
2018-09-03T00:44:14.315Z,14.60
2018-09-03T00:46:48.330Z,14.60
2018-09-03T00:49:17.289Z,14.60
2018-09-03T00:51:46.332Z,14.40
2018-09-03T00:54:15.137Z,14.30
2018-09-03T00:56:44.116Z,14.20
2018-09-03T00:59:13.002Z,14.10
2018-09-03T01:01:41.804Z,14.10
2018-09-03T01:04:10.885Z,14.00
2018-09-03T01:06:39.802Z,14.10
2018-09-03T01:09:09.175Z,14.20
2018-09-03T01:11:38.028Z,14.20
2018-09-03T01:14:06.859Z,14.10
2018-09-03T01:16:35.681Z,14.20
2018-09-03T01:19:04.689Z,14.30
2018-09-03T01:21:33.654Z,14.40
2018-09-03T01:24:02.594Z,14.40
2018-09-03T01:26:31.542Z,14.40
2018-09-03T01:29:00.533Z,14.50
2018-09-03T01:31:29.502Z,14.70
2018-09-03T01:33:58.437Z,14.80
2018-09-03T01:36:27.272Z,14.90
2018-09-03T01:38:56.030Z,15.00
2018-09-03T01:41:24.803Z,15.10
2018-09-03T01:43:53.597Z,15.00
2018-09-03T01:46:22.354Z,15.00
2018-09-03T01:48:51.016Z,14.90
2018-09-03T01:51:19.842Z,15.00
2018-09-03T01:53:48.576Z,15.00
2018-09-03T01:56:17.397Z,14.90
2018-09-03T01:58:46.147Z,14.80
2018-09-03T02:01:14.960Z,14.80
2018-09-03T02:03:43.682Z,14.90
2018-09-03T02:06:12.481Z,14.90
2018-09-03T02:08:41.262Z,14.80
2018-09-03T02:11:10.005Z,14.90
2018-09-03T02:13:38.923Z,14.80
2018-09-03T02:16:07.616Z,14.90
2018-09-03T02:18:36.408Z,14.90
2018-09-03T02:21:05.350Z,15.00
2018-09-03T02:23:34.264Z,15.10
2018-09-03T02:26:03.164Z,15.00
2018-09-03T02:28:31.945Z,15.00
2018-09-03T02:31:00.793Z,15.00
2018-09-03T02:33:29.504Z,15.00
2018-09-03T02:35:58.314Z,15.10
2018-09-03T02:38:27.026Z,15.10
2018-09-03T02:40:55.655Z,15.30
2018-09-03T02:43:24.525Z,15.40
2018-09-03T02:45:53.511Z,15.50
2018-09-03T02:48:22.250Z,15.60
2018-09-03T02:50:51.115Z,15.70
2018-09-03T02:53:20.035Z,15.60
2018-09-03T02:55:49.002Z,15.60
2018-09-03T02:58:17.950Z,15.60
2018-09-03T03:00:46.918Z,15.60
2018-09-03T03:03:15.845Z,15.70
2018-09-03T03:05:44.550Z,15.80
2018-09-03T03:08:13.481Z,15.90
2018-09-03T03:10:42.402Z,15.90
2018-09-03T03:13:11.069Z,16.00
2018-09-03T03:15:39.899Z,15.90
2018-09-03T03:18:08.972Z,15.90
2018-09-03T03:20:37.933Z,15.70
2018-09-03T03:23:07.007Z,15.70
2018-09-03T03:25:35.952Z,15.90
2018-09-03T03:28:04.848Z,15.80
2018-09-03T03:33:02.196Z,15.00
2018-09-03T03:35:33.168Z,15.70
2018-09-03T03:38:02.106Z,15.80
2018-09-03T03:42:59.468Z,15.80
2018-09-03T03:45:28.396Z,16.20
2018-09-03T03:47:57.481Z,16.00
2018-09-03T03:50:26.320Z,16.00
2018-09-03T03:52:55.210Z,16.10
2018-09-03T03:55:24.076Z,16.10
2018-09-03T03:57:52.727Z,16.00
2018-09-03T04:00:21.705Z,16.00
2018-09-03T04:02:50.605Z,16.00
2018-09-03T04:05:19.642Z,15.90
2018-09-03T04:07:48.473Z,16.10
2018-09-03T04:10:17.290Z,16.10
2018-09-03T04:12:51.410Z,16.00
2018-09-03T04:15:20.190Z,15.90
2018-09-03T04:17:49.263Z,15.80
2018-09-03T04:20:18.203Z,15.70
2018-09-03T04:22:47.120Z,15.50
2018-09-03T04:25:16.151Z,15.60
2018-09-03T04:27:45.031Z,15.70
2018-09-03T04:30:13.956Z,15.80
2018-09-03T04:32:42.814Z,15.80
2018-09-03T04:35:11.727Z,15.80
2018-09-03T04:37:40.534Z,15.80
2018-09-03T04:40:09.375Z,15.70
2018-09-03T04:42:38.241Z,15.60
2018-09-03T04:45:07.367Z,15.60
2018-09-03T04:47:36.142Z,15.70
2018-09-03T04:50:05.181Z,15.80
2018-09-03T05:01:23.174Z,16.00
2018-09-03T05:03:53.191Z,16.00
2018-09-03T05:06:23.957Z,16.00
2018-09-03T05:08:53.977Z,16.00
2018-09-03T05:11:22.698Z,16.00
2018-09-03T05:13:54.482Z,16.10
2018-09-03T05:16:23.103Z,16.20
2018-09-03T05:18:53.796Z,16.30
2018-09-03T05:21:23.251Z,16.20
2018-09-03T05:23:53.891Z,16.00
2018-09-03T05:26:22.640Z,15.90
2018-09-03T05:28:52.992Z,16.00
2018-09-03T05:31:23.615Z,16.10
2018-09-03T05:33:53.527Z,16.10
2018-09-03T05:36:25.043Z,16.10
2018-09-03T05:38:53.912Z,16.30
2018-09-03T05:46:54.072Z,16.40
2018-09-03T05:49:42.658Z,16.40
2018-09-03T05:55:22.662Z,16.30
2018-09-03T05:57:54.619Z,17.00
2018-09-03T06:00:23.208Z,16.50
2018-09-03T06:02:52.787Z,16.40
2018-09-03T06:05:23.211Z,16.30
2018-09-03T06:07:52.987Z,16.30
2018-09-03T06:13:23.402Z,16.40
2018-09-03T06:15:53.622Z,16.40
2018-09-03T06:18:23.861Z,16.50
2018-09-03T06:20:54.087Z,16.50
2018-09-03T06:23:24.089Z,16.60
2018-09-03T06:25:56.565Z,16.60
2018-09-03T06:28:26.198Z,16.60
2018-09-03T06:30:55.667Z,16.70
2018-09-03T08:01:50.719Z,17.00
2018-09-03T08:04:37.316Z,18.70
2018-09-03T08:07:09.294Z,18.50
2018-09-03T12:26:53.830Z,18.20
2018-09-03T12:32:23.617Z,21.30
2018-09-03T12:37:48.107Z,21.30
2018-09-03T12:40:22.411Z,21.30
2018-09-03T12:42:53.372Z,20.80
2018-09-03T12:45:29.706Z,21.10
2018-09-03T12:49:57.700Z,21.00
2018-09-03T12:52:38.049Z,21.20
2018-09-03T12:57:50.482Z,21.10
2018-09-03T13:27:55.367Z,20.50
2018-09-03T13:30:24.845Z,20.30
2018-09-03T13:35:53.557Z,20.30
2018-09-03T13:55:51.657Z,20.30
2018-09-03T13:58:24.583Z,20.30
2018-09-03T14:03:54.415Z,20.60
2018-09-03T14:06:25.052Z,21.00
2018-09-03T14:58:15.401Z,20.70
2018-09-03T15:03:43.864Z,21.30
2018-09-03T15:06:12.680Z,21.40
2018-09-03T15:08:42.094Z,21.50
2018-09-03T15:11:14.633Z,21.70
2018-09-03T15:13:43.681Z,21.80
2018-09-03T15:16:14.082Z,21.70
2018-09-03T15:18:44.583Z,21.30
2018-09-03T15:21:13.408Z,21.40
2018-09-03T15:23:47.014Z,21.20
2018-09-03T15:26:20.124Z,21.20
2018-09-03T15:28:54.385Z,21.10
2018-09-03T15:31:35.289Z,21.00
2018-09-03T15:34:16.158Z,20.70
2018-09-03T15:37:06.597Z,20.80
2018-09-03T15:39:44.639Z,20.80
2018-09-03T15:42:16.559Z,20.70
2018-09-03T15:44:58.481Z,20.60
2018-09-03T15:47:30.795Z,20.70
2018-09-03T16:08:16.749Z,21.50
2018-09-03T16:10:45.382Z,21.40
2018-09-03T16:13:14.798Z,21.20
2018-09-03T16:18:29.327Z,21.10
2018-09-03T16:20:59.967Z,21.00
2018-09-03T16:23:46.044Z,20.80
2018-09-03T16:26:15.490Z,20.60
2018-09-03T16:28:44.259Z,20.40
2018-09-03T16:31:13.030Z,20.30
2018-09-03T16:33:42.131Z,20.30
2018-09-03T16:36:11.275Z,20.40
2018-09-03T16:38:40.056Z,20.50
2018-09-03T16:41:08.936Z,20.40
2018-09-03T16:43:37.755Z,20.30
2018-09-03T16:46:10.951Z,20.30
2018-09-03T16:48:39.934Z,20.20
2018-09-03T16:51:09.162Z,20.00
2018-09-03T16:53:38.379Z,20.00
2018-09-03T16:56:07.418Z,19.90
2018-09-03T16:58:36.210Z,19.80
2018-09-03T17:01:05.020Z,19.70
2018-09-03T17:03:33.774Z,19.70
2018-09-03T17:06:02.629Z,19.80
2018-09-03T17:08:31.463Z,19.70
2018-09-03T17:11:00.033Z,19.70
2018-09-03T17:13:28.957Z,19.70
2018-09-03T17:15:57.820Z,19.80
2018-09-03T17:18:26.596Z,19.90
2018-09-03T17:20:55.686Z,19.80
2018-09-03T17:23:24.312Z,19.70
2018-09-03T17:25:53.371Z,19.70
2018-09-03T17:28:22.211Z,19.70
2018-09-03T17:30:51.196Z,19.70
2018-09-03T17:33:20.087Z,19.70
2018-09-03T17:35:48.866Z,19.60
2018-09-03T17:38:17.471Z,19.60
2018-09-03T17:40:46.101Z,19.60
2018-09-03T17:43:22.213Z,19.60
2018-09-03T17:45:51.271Z,19.40
2018-09-03T17:48:20.346Z,19.40
2018-09-03T17:50:49.306Z,19.40
2018-09-03T17:53:20.970Z,19.50
2018-09-03T17:55:50.313Z,19.50
2018-09-03T17:58:19.352Z,19.40
2018-09-03T18:00:48.186Z,19.50
2018-09-03T18:03:17.536Z,19.50
2018-09-03T18:05:46.876Z,19.40
2018-09-03T18:08:15.819Z,19.50
2018-09-03T18:10:45.284Z,19.50
2018-09-03T18:13:13.879Z,19.50
2018-09-03T18:15:42.442Z,19.50
2018-09-03T18:18:11.075Z,19.60
2018-09-03T18:20:39.736Z,19.60
2018-09-03T18:23:08.546Z,19.40
2018-09-03T18:25:37.080Z,19.40
2018-09-03T18:28:05.696Z,19.40
2018-09-03T18:30:34.320Z,19.50
2018-09-03T18:33:02.982Z,19.40
2018-09-03T18:35:31.656Z,19.40
2018-09-03T18:38:00.442Z,19.30
2018-09-03T18:40:29.003Z,19.40
2018-09-03T18:42:57.559Z,19.40
2018-09-03T18:45:26.423Z,19.40
2018-09-03T18:47:55.420Z,19.40
2018-09-03T18:50:24.276Z,19.30
2018-09-03T18:52:52.967Z,19.40
2018-09-03T18:55:21.924Z,19.40
2018-09-03T18:57:50.972Z,19.50
2018-09-03T19:00:19.726Z,19.50
2018-09-03T19:02:48.431Z,19.30
2018-09-03T19:05:17.199Z,19.30
2018-09-03T19:08:39.435Z,19.10
2018-09-03T19:11:08.051Z,19.20
2018-09-03T19:13:36.636Z,19.00
2018-09-03T19:16:05.675Z,18.90
2018-09-03T19:18:34.326Z,19.00
2018-09-03T19:21:03.041Z,18.90
2018-09-03T19:23:31.677Z,19.00
2018-09-03T19:26:01.152Z,18.90
2018-09-03T19:28:33.554Z,18.90
2018-09-03T19:31:02.302Z,19.00
2018-09-03T19:33:31.739Z,19.10
2018-09-03T19:36:00.663Z,19.20
2018-09-03T19:41:21.771Z,19.30
2018-09-03T19:43:50.351Z,19.40
2018-09-03T19:46:19.173Z,19.50
2018-09-03T19:52:01.686Z,19.60
2018-09-03T19:54:30.717Z,19.40
2018-09-03T19:56:59.356Z,19.40
2018-09-03T19:59:30.783Z,19.30
2018-09-03T20:02:00.956Z,19.30
2018-09-03T20:04:29.913Z,19.30
2018-09-03T20:06:58.558Z,19.20
2018-09-03T20:09:28.585Z,19.10
2018-09-03T20:12:02.775Z,19.10
2018-09-03T20:14:32.125Z,19.10
2018-09-03T20:17:01.990Z,19.40
2018-09-03T20:19:32.992Z,19.40
2018-09-03T20:22:03.622Z,19.30
2018-09-03T20:24:32.759Z,19.20
2018-09-03T20:27:11.375Z,19.20
2018-09-03T20:29:40.196Z,19.20
2018-09-03T20:32:09.310Z,19.30
2018-09-03T20:34:37.849Z,19.30
2018-09-03T20:37:08.873Z,19.10
2018-09-03T20:39:39.431Z,19.10
2018-09-03T20:42:11.916Z,18.80
2018-09-03T20:44:41.164Z,18.70
2018-09-03T20:47:12.279Z,18.50
2018-09-03T20:49:43.335Z,18.50
2018-09-03T20:52:13.669Z,18.50
2018-09-03T20:54:48.403Z,18.50
2018-09-03T20:57:17.680Z,18.60
2018-09-03T20:59:47.803Z,19.00
2018-09-03T21:02:16.694Z,18.80
2018-09-03T21:04:45.490Z,18.60
2018-09-03T21:07:14.762Z,18.80
2018-09-03T21:09:44.459Z,18.80
2018-09-03T21:12:13.131Z,18.50
2018-09-03T21:14:42.454Z,18.60
2018-09-03T21:17:11.560Z,18.60
2018-09-03T21:19:41.376Z,18.40
2018-09-03T21:22:11.930Z,18.20
2018-09-03T21:24:40.865Z,18.40
2018-09-03T21:27:09.655Z,18.20
2018-09-03T21:29:40.466Z,18.70
2018-09-03T21:32:09.984Z,18.40
2018-09-03T21:34:39.367Z,18.50
2018-09-03T21:37:08.146Z,18.70
2018-09-03T21:39:37.144Z,18.50
2018-09-03T21:42:07.095Z,18.50
2018-09-03T21:44:37.119Z,18.40
2018-09-03T21:47:14.935Z,18.40
2018-09-03T21:49:44.548Z,18.60
2018-09-03T21:52:14.839Z,18.70
2018-09-03T21:54:44.206Z,18.90
2018-09-03T21:57:13.084Z,18.80
2018-09-03T21:59:42.098Z,19.10
2018-09-03T22:02:11.909Z,18.90
2018-09-03T22:04:43.645Z,18.70
2018-09-03T22:07:14.397Z,18.50
2018-09-03T22:09:44.480Z,18.50
2018-09-03T22:12:13.288Z,18.40
2018-09-03T22:14:43.418Z,18.60
2018-09-03T22:17:12.711Z,18.30
2018-09-03T22:19:42.186Z,18.10
2018-09-03T22:22:12.224Z,18.00
2018-09-03T22:24:43.335Z,18.00
2018-09-03T22:27:12.203Z,17.90
2018-09-03T22:29:40.776Z,18.20
2018-09-03T22:32:10.464Z,17.80
2018-09-03T22:34:39.175Z,17.90
2018-09-03T22:37:07.914Z,17.80
2018-09-03T22:39:43.430Z,17.80
2018-09-03T22:42:12.326Z,17.80
2018-09-03T22:44:41.352Z,17.80
2018-09-03T22:47:10.257Z,18.10
2018-09-03T22:49:38.878Z,17.90
2018-09-03T22:52:07.839Z,17.90
2018-09-03T22:54:36.996Z,17.90
2018-09-03T22:57:06.130Z,17.90
2018-09-03T22:59:35.078Z,17.90
2018-09-03T23:02:04.059Z,18.10
2018-09-03T23:04:33.064Z,18.10
2018-09-03T23:07:01.808Z,18.00
2018-09-03T23:09:30.894Z,18.10
2018-09-03T23:11:59.660Z,18.00
2018-09-03T23:14:28.471Z,17.90
2018-09-03T23:16:57.509Z,17.90
2018-09-03T23:19:26.502Z,17.80
2018-09-03T23:21:55.221Z,17.90
2018-09-03T23:24:24.636Z,17.80
2018-09-03T23:26:53.371Z,18.00
2018-09-03T23:29:22.497Z,18.20
2018-09-03T23:31:51.790Z,18.00
2018-09-03T23:34:20.565Z,18.30
2018-09-03T23:36:49.660Z,18.00
2018-09-03T23:39:18.371Z,17.90
2018-09-03T23:41:49.938Z,17.80
2018-09-03T23:44:18.911Z,17.80
2018-09-03T23:46:48.098Z,18.10
2018-09-03T23:49:16.858Z,17.90
2018-09-03T23:51:45.543Z,17.60
2018-09-03T23:54:14.475Z,17.90
2018-09-03T23:56:43.219Z,17.70
2018-09-03T23:59:12.659Z,17.90
